createdAt,value
2023-05-02T00:00:47.910Z,14.87
2023-05-02T00:05:54.449Z,14.78
2023-05-02T00:11:03.724Z,14.68
2023-05-02T00:16:11.392Z,14.60
2023-05-02T00:21:21.078Z,14.47
2023-05-02T00:26:24.803Z,14.37
2023-05-02T00:31:29.539Z,14.26
2023-05-02T00:36:36.656Z,14.17
2023-05-02T00:41:41.958Z,14.06
2023-05-02T00:47:10.044Z,13.96
2023-05-02T00:52:29.004Z,13.84
2023-05-02T00:57:32.907Z,13.73
2023-05-02T01:02:49.952Z,13.61
2023-05-02T01:08:11.820Z,13.53
2023-05-02T01:13:22.071Z,13.45
2023-05-02T01:18:29.979Z,13.37
2023-05-02T01:23:42.331Z,13.32
2023-05-02T01:29:05.385Z,13.25
2023-05-02T01:34:11.956Z,13.18
2023-05-02T01:39:20.453Z,13.18
2023-05-02T01:44:32.826Z,13.21
2023-05-02T01:49:38.625Z,13.22
2023-05-02T01:54:43.158Z,13.22
2023-05-02T01:59:52.888Z,13.18
2023-05-02T02:04:57.586Z,13.11
2023-05-02T02:10:03.082Z,13.09
2023-05-02T02:15:15.213Z,13.12
2023-05-02T02:20:18.864Z,13.14
2023-05-02T02:25:22.174Z,13.17
2023-05-02T02:30:27.261Z,13.18
2023-05-02T02:35:35.647Z,13.19
2023-05-02T02:40:46.182Z,13.21
2023-05-02T02:45:59.486Z,13.24
2023-05-02T02:51:14.230Z,13.26
2023-05-02T02:56:21.680Z,13.27
2023-05-02T03:01:31.434Z,13.27
2023-05-02T03:06:34.896Z,13.26
2023-05-02T03:11:38.138Z,13.27
2023-05-02T03:16:43.306Z,13.27
2023-05-02T03:21:46.925Z,13.29
2023-05-02T03:26:50.238Z,13.30
2023-05-02T03:31:55.206Z,13.32
2023-05-02T03:36:58.487Z,13.33
2023-05-02T03:42:01.881Z,13.32
2023-05-02T03:47:07.798Z,13.35
2023-05-02T03:52:13.435Z,13.38
2023-05-02T03:57:16.627Z,13.36
2023-05-02T04:02:25.837Z,13.37
2023-05-02T04:07:29.129Z,13.39
2023-05-02T04:12:32.356Z,13.39
2023-05-02T04:17:37.055Z,13.41
2023-05-02T04:22:40.944Z,13.45
2023-05-02T04:27:44.224Z,13.47
2023-05-02T04:32:49.391Z,13.51
2023-05-02T04:37:52.869Z,13.54
2023-05-02T04:42:56.076Z,13.56
2023-05-02T04:48:00.729Z,13.58
2023-05-02T04:53:03.961Z,13.63
2023-05-02T04:58:07.040Z,13.68
2023-05-02T05:03:12.004Z,13.77
2023-05-02T05:08:19.169Z,13.86
2023-05-02T05:13:22.196Z,13.89
2023-05-02T05:18:40.330Z,13.97
2023-05-02T05:23:46.417Z,14.04
2023-05-02T05:28:50.745Z,14.13
2023-05-02T05:33:55.417Z,14.21
2023-05-02T05:38:58.823Z,14.22
2023-05-02T05:44:02.150Z,14.29
2023-05-02T05:49:07.446Z,14.39
2023-05-02T05:54:10.614Z,14.42
2023-05-02T05:59:13.814Z,14.47
2023-05-02T06:04:18.479Z,14.45
2023-05-02T06:09:21.947Z,14.46
2023-05-02T06:14:25.430Z,14.49
2023-05-02T06:19:29.999Z,14.53
2023-05-02T06:24:33.439Z,14.58
2023-05-02T06:29:36.824Z,14.65
2023-05-02T06:34:41.903Z,14.76
2023-05-02T06:39:45.166Z,14.90
2023-05-02T06:44:49.384Z,14.99
2023-05-02T06:49:54.119Z,15.07
2023-05-02T06:54:57.497Z,15.12
2023-05-02T07:00:00.972Z,15.14
2023-05-02T07:05:06.470Z,15.33
2023-05-02T07:10:10.574Z,15.43
2023-05-02T07:15:14.471Z,15.51
2023-05-02T07:20:26.657Z,15.64
2023-05-02T07:25:30.129Z,15.83
2023-05-02T07:30:33.447Z,16.00
2023-05-02T07:35:38.392Z,16.09
2023-05-02T07:40:41.534Z,16.16
2023-05-02T07:45:45.063Z,16.25
2023-05-02T07:50:50.030Z,16.37
2023-05-02T07:55:53.307Z,16.42
2023-05-02T08:00:56.466Z,16.54
2023-05-02T08:06:09.736Z,16.63
2023-05-02T08:11:12.977Z,16.44
2023-05-02T08:16:16.209Z,16.22
2023-05-02T08:21:20.815Z,15.98
2023-05-02T08:26:24.940Z,15.84
2023-05-02T08:31:33.640Z,15.69
2023-05-02T08:36:38.413Z,15.61
2023-05-02T08:41:41.601Z,15.49
2023-05-02T08:46:50.262Z,15.45
2023-05-02T08:51:58.470Z,15.35
2023-05-02T08:57:03.608Z,15.50
2023-05-02T09:02:19.327Z,15.84
2023-05-02T09:07:24.126Z,16.19
2023-05-02T09:12:27.961Z,16.42
2023-05-02T09:17:41.705Z,17.01
2023-05-02T09:22:52.504Z,17.42
2023-05-02T09:28:02.256Z,17.71
2023-05-02T09:33:05.916Z,17.85
2023-05-02T09:38:21.252Z,17.71
2023-05-02T09:43:24.976Z,17.37
2023-05-02T09:48:29.997Z,17.24
2023-05-02T09:53:34.511Z,17.20
2023-05-02T09:58:38.814Z,17.43
2023-05-02T10:03:42.798Z,17.73
2023-05-02T10:08:49.543Z,17.87
2023-05-02T10:13:53.676Z,18.20
2023-05-02T10:19:04.418Z,18.76
2023-05-02T10:24:09.322Z,19.12
2023-05-02T10:29:13.072Z,19.17
2023-05-02T10:34:17.516Z,18.82
2023-05-02T10:39:25.744Z,18.79
2023-05-02T10:44:36.040Z,18.91
2023-05-02T10:49:52.428Z,18.98
2023-05-02T10:55:15.553Z,18.98
2023-05-02T11:00:26.543Z,18.79
2023-05-02T11:05:30.554Z,18.70
2023-05-02T11:10:35.231Z,18.97
2023-05-02T11:15:58.245Z,19.13
2023-05-02T11:21:29.883Z,19.26
2023-05-02T11:26:40.819Z,19.42
2023-05-02T11:32:05.419Z,19.41
2023-05-02T11:37:13.544Z,18.65
2023-05-02T11:42:32.154Z,18.04
2023-05-02T11:47:36.159Z,17.47
2023-05-02T11:52:40.333Z,17.31
2023-05-02T11:57:44.896Z,17.10
2023-05-02T12:02:52.112Z,16.73
2023-05-02T12:07:57.686Z,16.57
2023-05-02T12:13:08.382Z,16.36
2023-05-02T12:18:14.462Z,16.21
2023-05-02T12:23:18.017Z,16.10
2023-05-02T12:28:24.546Z,16.21
2023-05-02T12:33:27.703Z,16.23
2023-05-02T12:38:31.012Z,16.23
2023-05-02T12:43:48.457Z,16.16
2023-05-02T12:49:03.416Z,16.23
2023-05-02T12:54:07.230Z,16.31
2023-05-02T12:59:26.525Z,16.24
2023-05-02T13:04:39.205Z,16.19
2023-05-02T13:09:42.368Z,16.13
2023-05-02T13:14:46.971Z,16.10
2023-05-02T13:20:00.895Z,16.11
2023-05-02T13:25:05.310Z,16.10
2023-05-02T13:30:12.063Z,16.08
2023-05-02T13:35:16.015Z,15.92
2023-05-02T13:40:19.390Z,15.91
2023-05-02T13:45:24.788Z,15.84
2023-05-02T13:50:28.175Z,15.81
2023-05-02T13:55:31.516Z,15.83
2023-05-02T14:00:36.542Z,15.77
2023-05-02T14:05:43.803Z,15.60
2023-05-02T14:10:47.341Z,15.53
2023-05-02T14:15:52.101Z,15.51
2023-05-02T14:20:55.647Z,15.52
2023-05-02T14:26:00.465Z,15.54
2023-05-02T14:31:05.468Z,15.65
2023-05-02T14:36:08.728Z,15.80
2023-05-02T14:41:12.017Z,15.97
2023-05-02T14:46:16.641Z,16.19
2023-05-02T14:51:20.247Z,16.35
2023-05-02T14:56:24.534Z,16.51
2023-05-02T15:01:30.581Z,16.48
2023-05-02T15:06:34.443Z,16.43
2023-05-02T15:11:38.011Z,16.45
2023-05-02T15:16:42.597Z,16.47
2023-05-02T15:21:46.683Z,16.54
2023-05-02T15:26:49.982Z,16.56
2023-05-02T15:31:55.740Z,16.51
2023-05-02T15:37:01.170Z,16.35
2023-05-02T15:42:05.086Z,16.32
2023-05-02T15:47:09.653Z,16.14
2023-05-02T15:52:13.446Z,16.12
2023-05-02T15:57:16.566Z,16.17
2023-05-02T16:02:21.997Z,16.17
2023-05-02T16:07:25.404Z,16.10
2023-05-02T16:12:29.254Z,15.97
2023-05-02T16:17:33.991Z,15.87
2023-05-02T16:22:37.269Z,15.76
2023-05-02T16:27:40.989Z,15.65
2023-05-02T16:32:45.617Z,15.56
2023-05-02T16:37:49.610Z,15.55
2023-05-02T16:42:52.899Z,15.55
2023-05-02T16:47:58.030Z,15.49
2023-05-02T16:53:03.767Z,15.44
2023-05-02T16:58:06.966Z,15.23
2023-05-02T17:03:12.022Z,15.02
2023-05-02T17:08:17.031Z,14.96
2023-05-02T17:13:20.336Z,14.87
2023-05-02T17:18:26.644Z,14.79
2023-05-02T17:23:30.378Z,14.73
2023-05-02T17:28:33.846Z,14.69
2023-05-02T17:33:38.599Z,14.65
2023-05-02T17:38:42.028Z,14.58
2023-05-02T17:43:45.204Z,14.51
2023-05-02T17:48:49.772Z,14.41
2023-05-02T17:53:53.022Z,14.37
2023-05-02T17:58:58.027Z,14.30
2023-05-02T18:04:07.479Z,14.26
2023-05-02T18:09:11.684Z,14.16
2023-05-02T18:14:15.676Z,14.10
2023-05-02T18:19:23.461Z,14.02
2023-05-02T18:24:28.417Z,13.99
2023-05-02T18:29:35.651Z,13.96
2023-05-02T18:34:42.880Z,13.90
2023-05-02T18:39:50.841Z,13.87
2023-05-02T18:44:59.366Z,13.82
2023-05-02T18:50:12.149Z,13.74
2023-05-02T18:55:16.714Z,13.65
2023-05-02T19:00:24.697Z,13.53
2023-05-02T19:05:40.366Z,13.36
2023-05-02T19:10:46.725Z,13.20
2023-05-02T19:15:54.571Z,13.04
2023-05-02T19:21:13.044Z,12.88
2023-05-02T19:26:30.153Z,12.73
2023-05-02T19:31:36.415Z,12.57
2023-05-02T19:36:52.264Z,12.44
2023-05-02T19:41:59.265Z,12.28
2023-05-02T19:47:14.603Z,12.18
2023-05-02T19:52:32.813Z,12.04
2023-05-02T19:57:54.486Z,11.91
2023-05-02T20:03:07.864Z,11.82
2023-05-02T20:08:32.137Z,11.73
2023-05-02T20:13:37.920Z,11.59
2023-05-02T20:18:48.378Z,11.45
2023-05-02T20:23:57.006Z,11.35
2023-05-02T20:29:10.984Z,11.25
2023-05-02T20:34:18.656Z,11.16
2023-05-02T20:39:29.911Z,11.14
2023-05-02T20:44:46.264Z,11.14
2023-05-02T20:49:51.244Z,11.11
2023-05-02T20:54:57.870Z,11.01
2023-05-02T21:00:05.160Z,10.92
2023-05-02T21:05:10.050Z,10.78
2023-05-02T21:10:16.482Z,10.67
2023-05-02T21:15:21.756Z,10.65
2023-05-02T21:20:28.737Z,10.62
2023-05-02T21:25:34.608Z,10.59
2023-05-02T21:30:40.343Z,10.57
2023-05-02T21:35:46.818Z,10.51
2023-05-02T21:40:53.824Z,10.45
2023-05-02T21:45:58.611Z,10.41
2023-05-02T21:51:03.362Z,10.36
2023-05-02T21:56:12.175Z,10.34
2023-05-02T22:01:17.066Z,10.33
2023-05-02T22:06:21.677Z,10.28
2023-05-02T22:11:32.032Z,10.34
2023-05-02T22:16:37.790Z,10.36
2023-05-02T22:21:42.105Z,10.40
2023-05-02T22:26:55.836Z,10.42
2023-05-02T22:32:01.465Z,10.41
2023-05-02T22:37:07.597Z,10.43
2023-05-02T22:42:14.610Z,10.39
2023-05-02T22:47:19.628Z,10.34
2023-05-02T22:52:27.584Z,10.28
2023-05-02T22:57:33.316Z,10.28
2023-05-02T23:02:38.624Z,10.29
2023-05-02T23:07:42.968Z,10.23
2023-05-02T23:12:48.705Z,10.12
2023-05-02T23:17:53.052Z,10.02
2023-05-02T23:22:59.912Z,9.94
2023-05-02T23:28:16.052Z,9.92
2023-05-02T23:33:21.417Z,9.86
2023-05-02T23:38:26.518Z,9.85
2023-05-02T23:43:34.718Z,9.82
2023-05-02T23:48:41.720Z,9.80
2023-05-02T23:53:47.130Z,9.78
2023-05-02T23:58:55.434Z,9.76
